sensor_id;sensor_type;location;lat;lon;timestamp;pressure;altitude;pressure_sealevel;temperature
19666;BMP180;9980;51.020;7.772;2023-04-16T00:01:04;97701.00;;;12.30
19666;BMP180;9980;51.020;7.772;2023-04-16T00:03:30;97706.00;;;12.30
19666;BMP180;9980;51.020;7.772;2023-04-16T00:05:57;97697.00;;;12.30
19666;BMP180;9980;51.020;7.772;2023-04-16T00:08:24;97696.00;;;12.30
19666;BMP180;9980;51.020;7.772;2023-04-16T00:10:52;97709.00;;;12.30
19666;BMP180;9980;51.020;7.772;2023-04-16T00:13:18;97681.00;;;12.30
19666;BMP180;9980;51.020;7.772;2023-04-16T00:15:44;97693.00;;;12.30
19666;BMP180;9980;51.020;7.772;2023-04-16T00:18:11;97703.00;;;12.20
19666;BMP180;9980;51.020;7.772;2023-04-16T00:20:37;97698.00;;;12.20
19666;BMP180;9980;51.020;7.772;2023-04-16T00:23:03;97701.00;;;12.20
19666;BMP180;9980;51.020;7.772;2023-04-16T00:25:29;97704.00;;;12.20
19666;BMP180;9980;51.020;7.772;2023-04-16T00:27:56;97707.00;;;12.30
19666;BMP180;9980;51.020;7.772;2023-04-16T00:30:22;97703.00;;;12.20
19666;BMP180;9980;51.020;7.772;2023-04-16T00:32:49;97705.00;;;12.20
19666;BMP180;9980;51.020;7.772;2023-04-16T00:35:15;97694.00;;;12.30
19666;BMP180;9980;51.020;7.772;2023-04-16T00:37:41;97703.00;;;12.30
19666;BMP180;9980;51.020;7.772;2023-04-16T00:40:08;97689.00;;;12.30
19666;BMP180;9980;51.020;7.772;2023-04-16T00:42:34;97704.00;;;12.30
19666;BMP180;9980;51.020;7.772;2023-04-16T00:45:02;97685.00;;;12.30
19666;BMP180;9980;51.020;7.772;2023-04-16T00:47:28;97701.00;;;12.30
19666;BMP180;9980;51.020;7.772;2023-04-16T00:49:54;97694.00;;;12.30
19666;BMP180;9980;51.020;7.772;2023-04-16T00:52:20;97708.00;;;12.30
19666;BMP180;9980;51.020;7.772;2023-04-16T00:54:47;97694.00;;;12.30
19666;BMP180;9980;51.020;7.772;2023-04-16T00:57:14;97699.00;;;12.30
19666;BMP180;9980;51.020;7.772;2023-04-16T00:59:41;97684.00;;;12.30
19666;BMP180;9980;51.020;7.772;2023-04-16T01:02:07;97699.00;;;12.30
19666;BMP180;9980;51.020;7.772;2023-04-16T01:04:34;97699.00;;;12.30
19666;BMP180;9980;51.020;7.772;2023-04-16T01:07:01;97694.00;;;12.30
19666;BMP180;9980;51.020;7.772;2023-04-16T01:09:27;97699.00;;;12.30
19666;BMP180;9980;51.020;7.772;2023-04-16T01:11:53;97701.00;;;12.30
19666;BMP180;9980;51.020;7.772;2023-04-16T01:14:19;97694.00;;;12.30
19666;BMP180;9980;51.020;7.772;2023-04-16T01:16:45;97701.00;;;12.20
19666;BMP180;9980;51.020;7.772;2023-04-16T01:19:12;97719.00;;;12.20
19666;BMP180;9980;51.020;7.772;2023-04-16T01:21:38;97726.00;;;12.20
19666;BMP180;9980;51.020;7.772;2023-04-16T01:24:05;97712.00;;;12.20
19666;BMP180;9980;51.020;7.772;2023-04-16T01:26:32;97713.00;;;12.20
19666;BMP180;9980;51.020;7.772;2023-04-16T01:28:58;97718.00;;;12.20
19666;BMP180;9980;51.020;7.772;2023-04-16T01:31:25;97728.00;;;12.20
19666;BMP180;9980;51.020;7.772;2023-04-16T01:34:00;97707.00;;;12.20
19666;BMP180;9980;51.020;7.772;2023-04-16T01:36:26;97713.00;;;12.20
19666;BMP180;9980;51.020;7.772;2023-04-16T01:38:54;97723.00;;;12.20
19666;BMP180;9980;51.020;7.772;2023-04-16T01:41:20;97718.00;;;12.20
19666;BMP180;9980;51.020;7.772;2023-04-16T01:43:46;97726.00;;;12.20
19666;BMP180;9980;51.020;7.772;2023-04-16T01:46:19;97711.00;;;12.20
19666;BMP180;9980;51.020;7.772;2023-04-16T01:48:48;97718.00;;;12.20
19666;BMP180;9980;51.020;7.772;2023-04-16T01:51:15;97708.00;;;12.10
19666;BMP180;9980;51.020;7.772;2023-04-16T01:53:41;97723.00;;;12.10
19666;BMP180;9980;51.020;7.772;2023-04-16T01:56:07;97713.00;;;12.20
19666;BMP180;9980;51.020;7.772;2023-04-16T01:58:34;97724.00;;;12.10
19666;BMP180;9980;51.020;7.772;2023-04-16T02:01:00;97720.00;;;12.10
19666;BMP180;9980;51.020;7.772;2023-04-16T02:03:27;97718.00;;;12.10
19666;BMP180;9980;51.020;7.772;2023-04-16T02:05:53;97719.00;;;12.10
19666;BMP180;9980;51.020;7.772;2023-04-16T02:08:20;97723.00;;;12.10
19666;BMP180;9980;51.020;7.772;2023-04-16T02:10:48;97724.00;;;12.10
19666;BMP180;9980;51.020;7.772;2023-04-16T02:13:15;97733.00;;;12.10
19666;BMP180;9980;51.020;7.772;2023-04-16T02:15:47;97723.00;;;12.10
19666;BMP180;9980;51.020;7.772;2023-04-16T02:18:15;97735.00;;;12.10
19666;BMP180;9980;51.020;7.772;2023-04-16T02:20:44;97732.00;;;12.00
19666;BMP180;9980;51.020;7.772;2023-04-16T02:23:12;97722.00;;;12.00
19666;BMP180;9980;51.020;7.772;2023-04-16T02:25:41;97721.00;;;12.00
19666;BMP180;9980;51.020;7.772;2023-04-16T02:28:13;97711.00;;;12.00
19666;BMP180;9980;51.020;7.772;2023-04-16T02:30:41;97721.00;;;12.00
19666;BMP180;9980;51.020;7.772;2023-04-16T02:33:10;97712.00;;;12.00
19666;BMP180;9980;51.020;7.772;2023-04-16T02:35:39;97720.00;;;12.00
19666;BMP180;9980;51.020;7.772;2023-04-16T02:38:07;97726.00;;;12.00
19666;BMP180;9980;51.020;7.772;2023-04-16T02:40:35;97710.00;;;11.90
19666;BMP180;9980;51.020;7.772;2023-04-16T02:43:01;97716.00;;;11.90
19666;BMP180;9980;51.020;7.772;2023-04-16T02:45:27;97715.00;;;11.90
19666;BMP180;9980;51.020;7.772;2023-04-16T02:47:56;97711.00;;;11.90
19666;BMP180;9980;51.020;7.772;2023-04-16T02:50:22;97724.00;;;11.90
19666;BMP180;9980;51.020;7.772;2023-04-16T02:52:48;97711.00;;;11.90
19666;BMP180;9980;51.020;7.772;2023-04-16T02:55:16;97716.00;;;11.90
19666;BMP180;9980;51.020;7.772;2023-04-16T02:57:42;97696.00;;;11.90
19666;BMP180;9980;51.020;7.772;2023-04-16T03:00:09;97719.00;;;11.90
19666;BMP180;9980;51.020;7.772;2023-04-16T03:02:35;97711.00;;;11.90
19666;BMP180;9980;51.020;7.772;2023-04-16T03:05:03;97702.00;;;11.90
19666;BMP180;9980;51.020;7.772;2023-04-16T03:07:29;97713.00;;;11.90
19666;BMP180;9980;51.020;7.772;2023-04-16T03:09:56;97714.00;;;11.90
19666;BMP180;9980;51.020;7.772;2023-04-16T03:12:22;97698.00;;;11.90
19666;BMP180;9980;51.020;7.772;2023-04-16T03:14:50;97715.00;;;11.80
19666;BMP180;9980;51.020;7.772;2023-04-16T03:17:19;97719.00;;;11.90
19666;BMP180;9980;51.020;7.772;2023-04-16T03:19:45;97727.00;;;11.90
19666;BMP180;9980;51.020;7.772;2023-04-16T03:22:12;97716.00;;;11.90
19666;BMP180;9980;51.020;7.772;2023-04-16T03:24:38;97721.00;;;11.90
19666;BMP180;9980;51.020;7.772;2023-04-16T03:27:04;97732.00;;;11.90
19666;BMP180;9980;51.020;7.772;2023-04-16T03:29:30;97725.00;;;11.90
19666;BMP180;9980;51.020;7.772;2023-04-16T03:31:57;97716.00;;;11.80
19666;BMP180;9980;51.020;7.772;2023-04-16T03:34:24;97745.00;;;11.90
19666;BMP180;9980;51.020;7.772;2023-04-16T03:36:51;97739.00;;;11.90
19666;BMP180;9980;51.020;7.772;2023-04-16T03:39:17;97738.00;;;11.90
19666;BMP180;9980;51.020;7.772;2023-04-16T03:41:45;97743.00;;;11.90
19666;BMP180;9980;51.020;7.772;2023-04-16T03:44:11;97739.00;;;11.90
19666;BMP180;9980;51.020;7.772;2023-04-16T03:46:38;97727.00;;;11.80
19666;BMP180;9980;51.020;7.772;2023-04-16T03:49:04;97731.00;;;11.80
19666;BMP180;9980;51.020;7.772;2023-04-16T03:51:31;97749.00;;;11.80
19666;BMP180;9980;51.020;7.772;2023-04-16T03:53:57;97737.00;;;11.80
19666;BMP180;9980;51.020;7.772;2023-04-16T03:56:24;97731.00;;;11.80
19666;BMP180;9980;51.020;7.772;2023-04-16T03:58:52;97724.00;;;11.80
19666;BMP180;9980;51.020;7.772;2023-04-16T04:01:18;97721.00;;;11.80
19666;BMP180;9980;51.020;7.772;2023-04-16T04:03:45;97735.00;;;11.80
19666;BMP180;9980;51.020;7.772;2023-04-16T04:06:12;97735.00;;;11.80
19666;BMP180;9980;51.020;7.772;2023-04-16T04:08:38;97739.00;;;11.80
19666;BMP180;9980;51.020;7.772;2023-04-16T04:11:05;97736.00;;;11.80
19666;BMP180;9980;51.020;7.772;2023-04-16T04:13:33;97753.00;;;11.90
19666;BMP180;9980;51.020;7.772;2023-04-16T04:15:59;97749.00;;;11.90
19666;BMP180;9980;51.020;7.772;2023-04-16T04:18:27;97759.00;;;11.90
19666;BMP180;9980;51.020;7.772;2023-04-16T04:20:53;97753.00;;;11.90
19666;BMP180;9980;51.020;7.772;2023-04-16T04:23:23;97746.00;;;11.90
19666;BMP180;9980;51.020;7.772;2023-04-16T04:25:49;97745.00;;;11.90
19666;BMP180;9980;51.020;7.772;2023-04-16T04:28:16;97755.00;;;11.90
19666;BMP180;9980;51.020;7.772;2023-04-16T04:30:42;97740.00;;;11.90
19666;BMP180;9980;51.020;7.772;2023-04-16T04:33:09;97761.00;;;11.90
19666;BMP180;9980;51.020;7.772;2023-04-16T04:35:36;97751.00;;;11.90
19666;BMP180;9980;51.020;7.772;2023-04-16T04:38:04;97768.00;;;11.90
19666;BMP180;9980;51.020;7.772;2023-04-16T04:40:31;97775.00;;;11.90
19666;BMP180;9980;51.020;7.772;2023-04-16T04:42:57;97786.00;;;11.90
19666;BMP180;9980;51.020;7.772;2023-04-16T04:45:24;97785.00;;;11.90
19666;BMP180;9980;51.020;7.772;2023-04-16T04:47:52;97775.00;;;11.90
19666;BMP180;9980;51.020;7.772;2023-04-16T04:50:20;97787.00;;;12.00
19666;BMP180;9980;51.020;7.772;2023-04-16T04:52:46;97774.00;;;11.90
19666;BMP180;9980;51.020;7.772;2023-04-16T04:55:13;97766.00;;;11.90
19666;BMP180;9980;51.020;7.772;2023-04-16T04:57:41;97792.00;;;12.00
19666;BMP180;9980;51.020;7.772;2023-04-16T05:00:08;97786.00;;;12.00
19666;BMP180;9980;51.020;7.772;2023-04-16T05:02:43;97772.00;;;12.00
19666;BMP180;9980;51.020;7.772;2023-04-16T05:05:09;97789.00;;;12.00
19666;BMP180;9980;51.020;7.772;2023-04-16T05:07:35;97804.00;;;12.00
19666;BMP180;9980;51.020;7.772;2023-04-16T05:10:01;97799.00;;;12.00
19666;BMP180;9980;51.020;7.772;2023-04-16T05:12:28;97780.00;;;12.00
19666;BMP180;9980;51.020;7.772;2023-04-16T05:14:54;97792.00;;;12.00
19666;BMP180;9980;51.020;7.772;2023-04-16T05:17:20;97778.00;;;12.00
19666;BMP180;9980;51.020;7.772;2023-04-16T05:19:47;97798.00;;;12.00
19666;BMP180;9980;51.020;7.772;2023-04-16T05:22:13;97795.00;;;12.00
19666;BMP180;9980;51.020;7.772;2023-04-16T05:24:39;97789.00;;;12.00
19666;BMP180;9980;51.020;7.772;2023-04-16T05:27:05;97780.00;;;12.00
19666;BMP180;9980;51.020;7.772;2023-04-16T05:29:32;97782.00;;;12.00
19666;BMP180;9980;51.020;7.772;2023-04-16T05:31:58;97777.00;;;12.00
19666;BMP180;9980;51.020;7.772;2023-04-16T05:34:24;97798.00;;;11.90
19666;BMP180;9980;51.020;7.772;2023-04-16T05:36:50;97791.00;;;11.90
19666;BMP180;9980;51.020;7.772;2023-04-16T05:39:16;97792.00;;;11.90
19666;BMP180;9980;51.020;7.772;2023-04-16T05:41:43;97787.00;;;11.90
19666;BMP180;9980;51.020;7.772;2023-04-16T05:44:09;97798.00;;;11.90
19666;BMP180;9980;51.020;7.772;2023-04-16T05:46:36;97788.00;;;11.90
19666;BMP180;9980;51.020;7.772;2023-04-16T05:49:03;97795.00;;;11.90
19666;BMP180;9980;51.020;7.772;2023-04-16T05:51:29;97812.00;;;11.90
19666;BMP180;9980;51.020;7.772;2023-04-16T05:53:55;97809.00;;;11.90
19666;BMP180;9980;51.020;7.772;2023-04-16T05:56:21;97800.00;;;11.90
19666;BMP180;9980;51.020;7.772;2023-04-16T05:58:48;97811.00;;;11.90
19666;BMP180;9980;51.020;7.772;2023-04-16T06:01:14;97821.00;;;11.90
19666;BMP180;9980;51.020;7.772;2023-04-16T06:03:40;97804.00;;;11.90
19666;BMP180;9980;51.020;7.772;2023-04-16T06:06:07;97814.00;;;11.90
19666;BMP180;9980;51.020;7.772;2023-04-16T06:08:34;97818.00;;;11.90
19666;BMP180;9980;51.020;7.772;2023-04-16T06:11:00;97829.00;;;11.90
19666;BMP180;9980;51.020;7.772;2023-04-16T06:13:26;97815.00;;;11.90
19666;BMP180;9980;51.020;7.772;2023-04-16T06:15:52;97818.00;;;11.90
19666;BMP180;9980;51.020;7.772;2023-04-16T06:18:19;97832.00;;;12.00
19666;BMP180;9980;51.020;7.772;2023-04-16T06:20:46;97831.00;;;12.00
19666;BMP180;9980;51.020;7.772;2023-04-16T06:23:12;97823.00;;;12.00
19666;BMP180;9980;51.020;7.772;2023-04-16T06:25:38;97819.00;;;12.00
19666;BMP180;9980;51.020;7.772;2023-04-16T06:28:05;97822.00;;;12.00
19666;BMP180;9980;51.020;7.772;2023-04-16T06:30:31;97815.00;;;12.00
19666;BMP180;9980;51.020;7.772;2023-04-16T06:32:57;97827.00;;;12.00
19666;BMP180;9980;51.020;7.772;2023-04-16T06:35:24;97814.00;;;12.00
19666;BMP180;9980;51.020;7.772;2023-04-16T06:37:50;97822.00;;;12.00
19666;BMP180;9980;51.020;7.772;2023-04-16T06:40:16;97825.00;;;12.10
19666;BMP180;9980;51.020;7.772;2023-04-16T06:42:43;97827.00;;;12.10
19666;BMP180;9980;51.020;7.772;2023-04-16T06:45:11;97833.00;;;12.10
19666;BMP180;9980;51.020;7.772;2023-04-16T06:47:38;97830.00;;;12.10
19666;BMP180;9980;51.020;7.772;2023-04-16T06:50:05;97838.00;;;12.10
19666;BMP180;9980;51.020;7.772;2023-04-16T06:52:31;97845.00;;;12.20
19666;BMP180;9980;51.020;7.772;2023-04-16T06:54:58;97836.00;;;12.20
19666;BMP180;9980;51.020;7.772;2023-04-16T06:57:24;97833.00;;;12.20
19666;BMP180;9980;51.020;7.772;2023-04-16T06:59:51;97853.00;;;12.20
19666;BMP180;9980;51.020;7.772;2023-04-16T07:02:17;97840.00;;;12.20
19666;BMP180;9980;51.020;7.772;2023-04-16T07:04:43;97837.00;;;12.20
19666;BMP180;9980;51.020;7.772;2023-04-16T07:07:10;97846.00;;;12.20
19666;BMP180;9980;51.020;7.772;2023-04-16T07:09:36;97845.00;;;12.30
19666;BMP180;9980;51.020;7.772;2023-04-16T07:12:02;97844.00;;;12.30
19666;BMP180;9980;51.020;7.772;2023-04-16T07:14:28;97842.00;;;12.30
19666;BMP180;9980;51.020;7.772;2023-04-16T07:16:55;97847.00;;;12.30
19666;BMP180;9980;51.020;7.772;2023-04-16T07:19:21;97840.00;;;12.30
19666;BMP180;9980;51.020;7.772;2023-04-16T07:21:47;97850.00;;;12.30
19666;BMP180;9980;51.020;7.772;2023-04-16T07:24:14;97853.00;;;12.30
19666;BMP180;9980;51.020;7.772;2023-04-16T07:26:40;97849.00;;;12.30
19666;BMP180;9980;51.020;7.772;2023-04-16T07:29:06;97849.00;;;12.30
19666;BMP180;9980;51.020;7.772;2023-04-16T07:31:33;97865.00;;;12.30
19666;BMP180;9980;51.020;7.772;2023-04-16T07:34:00;97859.00;;;12.30
19666;BMP180;9980;51.020;7.772;2023-04-16T07:36:26;97854.00;;;12.40
19666;BMP180;9980;51.020;7.772;2023-04-16T07:38:53;97850.00;;;12.40
19666;BMP180;9980;51.020;7.772;2023-04-16T07:41:19;97866.00;;;12.40
19666;BMP180;9980;51.020;7.772;2023-04-16T07:43:45;97865.00;;;12.40
19666;BMP180;9980;51.020;7.772;2023-04-16T07:46:12;97868.00;;;12.40
19666;BMP180;9980;51.020;7.772;2023-04-16T07:48:38;97871.00;;;12.40
19666;BMP180;9980;51.020;7.772;2023-04-16T07:51:04;97884.00;;;12.40
19666;BMP180;9980;51.020;7.772;2023-04-16T07:53:31;97874.00;;;12.40
19666;BMP180;9980;51.020;7.772;2023-04-16T07:55:57;97880.00;;;12.50
19666;BMP180;9980;51.020;7.772;2023-04-16T07:58:23;97878.00;;;12.50
19666;BMP180;9980;51.020;7.772;2023-04-16T08:00:50;97888.00;;;12.50
19666;BMP180;9980;51.020;7.772;2023-04-16T08:03:16;97894.00;;;12.50
19666;BMP180;9980;51.020;7.772;2023-04-16T08:05:43;97883.00;;;12.60
19666;BMP180;9980;51.020;7.772;2023-04-16T08:08:09;97891.00;;;12.60
19666;BMP180;9980;51.020;7.772;2023-04-16T08:10:36;97890.00;;;12.60
19666;BMP180;9980;51.020;7.772;2023-04-16T08:13:02;97902.00;;;12.60
19666;BMP180;9980;51.020;7.772;2023-04-16T08:15:28;97904.00;;;12.60
19666;BMP180;9980;51.020;7.772;2023-04-16T08:17:54;97901.00;;;12.70
19666;BMP180;9980;51.020;7.772;2023-04-16T08:20:21;97898.00;;;12.70
19666;BMP180;9980;51.020;7.772;2023-04-16T08:22:47;97898.00;;;12.70
19666;BMP180;9980;51.020;7.772;2023-04-16T08:25:14;97902.00;;;12.80
19666;BMP180;9980;51.020;7.772;2023-04-16T08:27:40;97916.00;;;12.80
19666;BMP180;9980;51.020;7.772;2023-04-16T08:30:07;97922.00;;;12.80
19666;BMP180;9980;51.020;7.772;2023-04-16T08:32:33;97917.00;;;12.80
19666;BMP180;9980;51.020;7.772;2023-04-16T08:34:59;97918.00;;;12.80
19666;BMP180;9980;51.020;7.772;2023-04-16T08:37:26;97932.00;;;12.90
19666;BMP180;9980;51.020;7.772;2023-04-16T08:39:52;97924.00;;;12.90
19666;BMP180;9980;51.020;7.772;2023-04-16T08:42:33;97928.00;;;12.90
19666;BMP180;9980;51.020;7.772;2023-04-16T08:45:16;97926.00;;;12.90
19666;BMP180;9980;51.020;7.772;2023-04-16T08:47:48;97948.00;;;12.90
19666;BMP180;9980;51.020;7.772;2023-04-16T08:50:18;97936.00;;;12.90
19666;BMP180;9980;51.020;7.772;2023-04-16T08:52:58;97935.00;;;12.90
19666;BMP180;9980;51.020;7.772;2023-04-16T08:55:49;97941.00;;;13.00
19666;BMP180;9980;51.020;7.772;2023-04-16T08:58:21;97948.00;;;13.10
19666;BMP180;9980;51.020;7.772;2023-04-16T09:00:48;97937.00;;;13.10
19666;BMP180;9980;51.020;7.772;2023-04-16T09:03:14;97934.00;;;13.20
19666;BMP180;9980;51.020;7.772;2023-04-16T09:05:42;97948.00;;;13.20
19666;BMP180;9980;51.020;7.772;2023-04-16T09:08:08;97950.00;;;13.30
19666;BMP180;9980;51.020;7.772;2023-04-16T09:10:35;97966.00;;;13.30
19666;BMP180;9980;51.020;7.772;2023-04-16T09:13:01;97958.00;;;13.40
19666;BMP180;9980;51.020;7.772;2023-04-16T09:15:27;97949.00;;;13.50
19666;BMP180;9980;51.020;7.772;2023-04-16T09:17:54;97958.00;;;13.50
19666;BMP180;9980;51.020;7.772;2023-04-16T09:20:23;97958.00;;;13.50
19666;BMP180;9980;51.020;7.772;2023-04-16T09:22:50;97958.00;;;13.60
19666;BMP180;9980;51.020;7.772;2023-04-16T09:25:19;97965.00;;;13.60
19666;BMP180;9980;51.020;7.772;2023-04-16T09:27:48;97949.00;;;13.60
19666;BMP180;9980;51.020;7.772;2023-04-16T09:30:25;97955.00;;;13.60
19666;BMP180;9980;51.020;7.772;2023-04-16T09:33:17;97986.00;;;13.60
19666;BMP180;9980;51.020;7.772;2023-04-16T09:35:49;97990.00;;;13.70
19666;BMP180;9980;51.020;7.772;2023-04-16T09:38:15;97992.00;;;13.70
19666;BMP180;9980;51.020;7.772;2023-04-16T09:40:42;97971.00;;;13.70
19666;BMP180;9980;51.020;7.772;2023-04-16T09:43:17;97994.00;;;13.70
19666;BMP180;9980;51.020;7.772;2023-04-16T09:45:50;97986.00;;;13.70
19666;BMP180;9980;51.020;7.772;2023-04-16T09:48:31;97986.00;;;13.70
19666;BMP180;9980;51.020;7.772;2023-04-16T09:51:00;97991.00;;;13.70
19666;BMP180;9980;51.020;7.772;2023-04-16T09:53:28;97998.00;;;13.60
19666;BMP180;9980;51.020;7.772;2023-04-16T09:55:57;98011.00;;;13.60
19666;BMP180;9980;51.020;7.772;2023-04-16T09:58:23;97993.00;;;13.60
19666;BMP180;9980;51.020;7.772;2023-04-16T10:01:17;98003.00;;;13.50
19666;BMP180;9980;51.020;7.772;2023-04-16T10:03:48;98002.00;;;13.60
19666;BMP180;9980;51.020;7.772;2023-04-16T10:06:18;98000.00;;;13.60
19666;BMP180;9980;51.020;7.772;2023-04-16T10:08:53;98009.00;;;13.50
19666;BMP180;9980;51.020;7.772;2023-04-16T10:11:22;98013.00;;;13.50
19666;BMP180;9980;51.020;7.772;2023-04-16T10:13:49;98028.00;;;13.50
19666;BMP180;9980;51.020;7.772;2023-04-16T10:16:17;98025.00;;;13.50
19666;BMP180;9980;51.020;7.772;2023-04-16T10:18:44;98018.00;;;13.50
19666;BMP180;9980;51.020;7.772;2023-04-16T10:21:11;98006.00;;;13.50
19666;BMP180;9980;51.020;7.772;2023-04-16T10:23:39;98014.00;;;13.50
19666;BMP180;9980;51.020;7.772;2023-04-16T10:26:05;98025.00;;;13.50
19666;BMP180;9980;51.020;7.772;2023-04-16T10:28:32;98021.00;;;13.50
19666;BMP180;9980;51.020;7.772;2023-04-16T10:31:04;98031.00;;;13.50
19666;BMP180;9980;51.020;7.772;2023-04-16T10:33:35;98016.00;;;13.40
19666;BMP180;9980;51.020;7.772;2023-04-16T10:36:15;98028.00;;;13.40
19666;BMP180;9980;51.020;7.772;2023-04-16T10:38:48;98040.00;;;13.40
19666;BMP180;9980;51.020;7.772;2023-04-16T10:41:15;98026.00;;;13.40
19666;BMP180;9980;51.020;7.772;2023-04-16T10:43:47;98037.00;;;13.40
19666;BMP180;9980;51.020;7.772;2023-04-16T10:46:24;98047.00;;;13.40
19666;BMP180;9980;51.020;7.772;2023-04-16T10:49:17;98046.00;;;13.40
19666;BMP180;9980;51.020;7.772;2023-04-16T10:51:58;98033.00;;;13.40
19666;BMP180;9980;51.020;7.772;2023-04-16T10:54:31;98015.00;;;13.40
19666;BMP180;9980;51.020;7.772;2023-04-16T10:57:07;98032.00;;;13.40
19666;BMP180;9980;51.020;7.772;2023-04-16T10:59:37;98028.00;;;13.50
19666;BMP180;9980;51.020;7.772;2023-04-16T11:02:15;98031.00;;;13.50
19666;BMP180;9980;51.020;7.772;2023-04-16T11:04:45;98045.00;;;13.60
19666;BMP180;9980;51.020;7.772;2023-04-16T11:12:20;98012.00;;;13.70
19666;BMP180;9980;51.020;7.772;2023-04-16T11:15:08;98009.00;;;13.80
19666;BMP180;9980;51.020;7.772;2023-04-16T11:17:45;98010.00;;;13.90
19666;BMP180;9980;51.020;7.772;2023-04-16T11:20:26;98031.00;;;14.00
19666;BMP180;9980;51.020;7.772;2023-04-16T11:22:57;98028.00;;;14.10
19666;BMP180;9980;51.020;7.772;2023-04-16T11:25:25;98018.00;;;14.20
19666;BMP180;9980;51.020;7.772;2023-04-16T11:27:52;98027.00;;;14.30
19666;BMP180;9980;51.020;7.772;2023-04-16T11:30:34;98014.00;;;14.40
19666;BMP180;9980;51.020;7.772;2023-04-16T11:33:06;98033.00;;;14.50
19666;BMP180;9980;51.020;7.772;2023-04-16T11:35:33;98016.00;;;14.60
19666;BMP180;9980;51.020;7.772;2023-04-16T11:37:59;98015.00;;;14.50
19666;BMP180;9980;51.020;7.772;2023-04-16T11:40:30;98013.00;;;14.70
19666;BMP180;9980;51.020;7.772;2023-04-16T11:43:01;98023.00;;;14.80
19666;BMP180;9980;51.020;7.772;2023-04-16T11:45:28;98008.00;;;15.00
19666;BMP180;9980;51.020;7.772;2023-04-16T11:47:54;98025.00;;;15.10
19666;BMP180;9980;51.020;7.772;2023-04-16T11:50:26;98028.00;;;15.10
19666;BMP180;9980;51.020;7.772;2023-04-16T11:53:03;98025.00;;;15.20
19666;BMP180;9980;51.020;7.772;2023-04-16T11:55:29;98021.00;;;15.30
19666;BMP180;9980;51.020;7.772;2023-04-16T11:57:56;98011.00;;;15.30
19666;BMP180;9980;51.020;7.772;2023-04-16T12:00:22;98025.00;;;15.30
19666;BMP180;9980;51.020;7.772;2023-04-16T12:02:53;98032.00;;;15.40
19666;BMP180;9980;51.020;7.772;2023-04-16T12:05:38;98031.00;;;15.40
19666;BMP180;9980;51.020;7.772;2023-04-16T12:08:08;98026.00;;;15.50
19666;BMP180;9980;51.020;7.772;2023-04-16T12:10:37;98031.00;;;15.60
19666;BMP180;9980;51.020;7.772;2023-04-16T12:13:17;98041.00;;;15.60
19666;BMP180;9980;51.020;7.772;2023-04-16T12:15:52;98017.00;;;15.60
19666;BMP180;9980;51.020;7.772;2023-04-16T12:18:22;98048.00;;;15.60
19666;BMP180;9980;51.020;7.772;2023-04-16T12:20:49;98037.00;;;15.60
19666;BMP180;9980;51.020;7.772;2023-04-16T12:23:27;98040.00;;;15.60
19666;BMP180;9980;51.020;7.772;2023-04-16T12:25:55;98045.00;;;15.70
19666;BMP180;9980;51.020;7.772;2023-04-16T12:28:33;98035.00;;;15.70
19666;BMP180;9980;51.020;7.772;2023-04-16T12:31:01;98028.00;;;15.70
19666;BMP180;9980;51.020;7.772;2023-04-16T12:33:28;98030.00;;;15.70
19666;BMP180;9980;51.020;7.772;2023-04-16T12:35:54;98033.00;;;15.60
19666;BMP180;9980;51.020;7.772;2023-04-16T12:38:21;98030.00;;;15.60
19666;BMP180;9980;51.020;7.772;2023-04-16T12:40:50;98025.00;;;15.70
19666;BMP180;9980;51.020;7.772;2023-04-16T12:43:17;98039.00;;;15.70
19666;BMP180;9980;51.020;7.772;2023-04-16T12:45:44;98034.00;;;15.80
19666;BMP180;9980;51.020;7.772;2023-04-16T12:48:11;98047.00;;;15.80
19666;BMP180;9980;51.020;7.772;2023-04-16T12:50:37;98035.00;;;15.80
19666;BMP180;9980;51.020;7.772;2023-04-16T12:53:04;98037.00;;;15.90
19666;BMP180;9980;51.020;7.772;2023-04-16T12:55:31;98049.00;;;15.90
19666;BMP180;9980;51.020;7.772;2023-04-16T12:57:57;98044.00;;;15.90
19666;BMP180;9980;51.020;7.772;2023-04-16T13:00:23;98043.00;;;15.90
19666;BMP180;9980;51.020;7.772;2023-04-16T13:02:49;98040.00;;;15.90
19666;BMP180;9980;51.020;7.772;2023-04-16T13:05:16;98038.00;;;15.90
19666;BMP180;9980;51.020;7.772;2023-04-16T13:07:44;98048.00;;;16.00
19666;BMP180;9980;51.020;7.772;2023-04-16T13:10:11;98039.00;;;16.00
19666;BMP180;9980;51.020;7.772;2023-04-16T13:12:38;98046.00;;;16.00
19666;BMP180;9980;51.020;7.772;2023-04-16T13:15:04;98043.00;;;16.00
19666;BMP180;9980;51.020;7.772;2023-04-16T13:17:30;98059.00;;;16.00
19666;BMP180;9980;51.020;7.772;2023-04-16T13:19:57;98056.00;;;16.00
19666;BMP180;9980;51.020;7.772;2023-04-16T13:22:23;98044.00;;;16.00
19666;BMP180;9980;51.020;7.772;2023-04-16T13:24:49;98050.00;;;16.00
19666;BMP180;9980;51.020;7.772;2023-04-16T13:27:15;98051.00;;;16.00
19666;BMP180;9980;51.020;7.772;2023-04-16T13:29:42;98044.00;;;16.00
19666;BMP180;9980;51.020;7.772;2023-04-16T13:32:09;98044.00;;;15.90
19666;BMP180;9980;51.020;7.772;2023-04-16T13:34:37;98053.00;;;15.90
19666;BMP180;9980;51.020;7.772;2023-04-16T13:37:04;98044.00;;;15.90
19666;BMP180;9980;51.020;7.772;2023-04-16T13:39:31;98046.00;;;15.90
19666;BMP180;9980;51.020;7.772;2023-04-16T13:41:57;98052.00;;;15.80
19666;BMP180;9980;51.020;7.772;2023-04-16T13:44:23;98057.00;;;15.80
19666;BMP180;9980;51.020;7.772;2023-04-16T13:46:49;98063.00;;;15.90
19666;BMP180;9980;51.020;7.772;2023-04-16T13:49:15;98070.00;;;15.80
19666;BMP180;9980;51.020;7.772;2023-04-16T13:51:42;98049.00;;;15.80
19666;BMP180;9980;51.020;7.772;2023-04-16T13:54:11;98054.00;;;15.80
19666;BMP180;9980;51.020;7.772;2023-04-16T13:56:38;98055.00;;;15.90
19666;BMP180;9980;51.020;7.772;2023-04-16T13:59:04;98070.00;;;15.90
19666;BMP180;9980;51.020;7.772;2023-04-16T14:01:31;98062.00;;;15.90
19666;BMP180;9980;51.020;7.772;2023-04-16T14:03:57;98068.00;;;15.90
19666;BMP180;9980;51.020;7.772;2023-04-16T14:06:25;98044.00;;;15.90
19666;BMP180;9980;51.020;7.772;2023-04-16T14:08:51;98058.00;;;16.00
19666;BMP180;9980;51.020;7.772;2023-04-16T14:11:18;98071.00;;;16.00
19666;BMP180;9980;51.020;7.772;2023-04-16T14:13:44;98052.00;;;16.00
19666;BMP180;9980;51.020;7.772;2023-04-16T14:16:10;98054.00;;;16.10
19666;BMP180;9980;51.020;7.772;2023-04-16T14:18:37;98066.00;;;16.10
19666;BMP180;9980;51.020;7.772;2023-04-16T14:21:07;98071.00;;;16.10
19666;BMP180;9980;51.020;7.772;2023-04-16T14:23:34;98064.00;;;16.10
19666;BMP180;9980;51.020;7.772;2023-04-16T14:26:00;98059.00;;;16.10
19666;BMP180;9980;51.020;7.772;2023-04-16T14:28:26;98063.00;;;16.10
19666;BMP180;9980;51.020;7.772;2023-04-16T14:30:52;98061.00;;;16.10